sensor_id;sensor_type;location;lat;lon;timestamp;temperature;humidity
43679;DHT22;29279;50.858;4.392;2023-04-06T00:01:39;10.20;65.80
43679;DHT22;29279;50.858;4.392;2023-04-06T00:04:05;10.20;65.80
43679;DHT22;29279;50.858;4.392;2023-04-06T00:06:32;10.30;65.30
43679;DHT22;29279;50.858;4.392;2023-04-06T00:08:58;10.30;65.50
43679;DHT22;29279;50.858;4.392;2023-04-06T00:11:24;10.30;65.30
43679;DHT22;29279;50.858;4.392;2023-04-06T00:13:50;10.40;65.00
43679;DHT22;29279;50.858;4.392;2023-04-06T00:16:16;10.40;65.00
43679;DHT22;29279;50.858;4.392;2023-04-06T00:18:41;10.30;65.40
43679;DHT22;29279;50.858;4.392;2023-04-06T00:21:07;10.10;65.90
43679;DHT22;29279;50.858;4.392;2023-04-06T00:23:33;10.20;65.80
43679;DHT22;29279;50.858;4.392;2023-04-06T00:25:59;10.30;65.50
43679;DHT22;29279;50.858;4.392;2023-04-06T00:28:24;10.30;65.70
43679;DHT22;29279;50.858;4.392;2023-04-06T00:30:55;10.30;65.80
43679;DHT22;29279;50.858;4.392;2023-04-06T00:33:21;10.30;65.90
43679;DHT22;29279;50.858;4.392;2023-04-06T00:35:47;10.30;65.80
43679;DHT22;29279;50.858;4.392;2023-04-06T00:38:14;10.40;65.60
43679;DHT22;29279;50.858;4.392;2023-04-06T00:40:41;10.30;65.70
43679;DHT22;29279;50.858;4.392;2023-04-06T00:43:06;10.30;66.10
43679;DHT22;29279;50.858;4.392;2023-04-06T00:45:34;10.40;65.90
43679;DHT22;29279;50.858;4.392;2023-04-06T00:48:00;10.40;66.20
43679;DHT22;29279;50.858;4.392;2023-04-06T00:50:27;10.40;66.20
43679;DHT22;29279;50.858;4.392;2023-04-06T00:52:53;10.40;66.40
43679;DHT22;29279;50.858;4.392;2023-04-06T00:55:19;10.30;66.60
43679;DHT22;29279;50.858;4.392;2023-04-06T00:57:45;10.40;66.50
43679;DHT22;29279;50.858;4.392;2023-04-06T01:00:11;10.20;67.00
43679;DHT22;29279;50.858;4.392;2023-04-06T01:02:38;10.30;67.00
43679;DHT22;29279;50.858;4.392;2023-04-06T01:05:04;10.30;66.80
43679;DHT22;29279;50.858;4.392;2023-04-06T01:07:30;10.20;66.90
43679;DHT22;29279;50.858;4.392;2023-04-06T01:09:56;10.20;67.60
43679;DHT22;29279;50.858;4.392;2023-04-06T01:12:21;10.10;67.40
43679;DHT22;29279;50.858;4.392;2023-04-06T01:14:47;10.10;67.40
43679;DHT22;29279;50.858;4.392;2023-04-06T01:17:13;10.10;67.20
43679;DHT22;29279;50.858;4.392;2023-04-06T01:19:39;10.20;67.00
43679;DHT22;29279;50.858;4.392;2023-04-06T01:22:06;10.20;67.00
43679;DHT22;29279;50.858;4.392;2023-04-06T01:24:32;10.10;67.10
43679;DHT22;29279;50.858;4.392;2023-04-06T01:26:58;10.10;67.20
43679;DHT22;29279;50.858;4.392;2023-04-06T01:29:24;10.10;67.20
43679;DHT22;29279;50.858;4.392;2023-04-06T01:31:50;10.00;67.60
43679;DHT22;29279;50.858;4.392;2023-04-06T01:34:15;10.00;67.60
43679;DHT22;29279;50.858;4.392;2023-04-06T01:36:41;10.00;67.70
43679;DHT22;29279;50.858;4.392;2023-04-06T01:39:07;10.10;67.30
43679;DHT22;29279;50.858;4.392;2023-04-06T01:41:33;10.00;67.50
43679;DHT22;29279;50.858;4.392;2023-04-06T01:43:59;10.00;67.80
43679;DHT22;29279;50.858;4.392;2023-04-06T01:46:25;9.90;67.90
43679;DHT22;29279;50.858;4.392;2023-04-06T01:48:51;10.00;67.90
43679;DHT22;29279;50.858;4.392;2023-04-06T01:51:17;10.10;67.60
43679;DHT22;29279;50.858;4.392;2023-04-06T01:53:43;10.00;67.60
43679;DHT22;29279;50.858;4.392;2023-04-06T01:56:08;10.00;67.90
43679;DHT22;29279;50.858;4.392;2023-04-06T01:58:34;9.80;68.70
43679;DHT22;29279;50.858;4.392;2023-04-06T02:01:00;9.90;68.20
43679;DHT22;29279;50.858;4.392;2023-04-06T02:03:26;9.90;68.40
43679;DHT22;29279;50.858;4.392;2023-04-06T02:05:52;9.90;68.40
43679;DHT22;29279;50.858;4.392;2023-04-06T02:08:18;10.00;68.30
43679;DHT22;29279;50.858;4.392;2023-04-06T02:10:44;10.10;68.00
43679;DHT22;29279;50.858;4.392;2023-04-06T02:13:10;10.00;68.10
43679;DHT22;29279;50.858;4.392;2023-04-06T02:15:35;10.00;68.00
43679;DHT22;29279;50.858;4.392;2023-04-06T02:18:01;10.00;68.10
43679;DHT22;29279;50.858;4.392;2023-04-06T02:20:27;9.80;68.50
43679;DHT22;29279;50.858;4.392;2023-04-06T02:22:52;9.90;68.50
43679;DHT22;29279;50.858;4.392;2023-04-06T02:25:18;9.80;68.50
43679;DHT22;29279;50.858;4.392;2023-04-06T02:27:44;9.80;68.70
43679;DHT22;29279;50.858;4.392;2023-04-06T02:30:10;9.80;68.90
43679;DHT22;29279;50.858;4.392;2023-04-06T02:32:36;9.70;69.40
43679;DHT22;29279;50.858;4.392;2023-04-06T02:35:01;9.80;69.00
43679;DHT22;29279;50.858;4.392;2023-04-06T02:37:27;9.80;69.00
43679;DHT22;29279;50.858;4.392;2023-04-06T02:39:53;9.80;68.90
43679;DHT22;29279;50.858;4.392;2023-04-06T02:42:19;9.80;69.10
43679;DHT22;29279;50.858;4.392;2023-04-06T02:44:44;9.80;69.10
43679;DHT22;29279;50.858;4.392;2023-04-06T02:47:10;9.90;69.00
43679;DHT22;29279;50.858;4.392;2023-04-06T02:49:36;10.10;68.50
43679;DHT22;29279;50.858;4.392;2023-04-06T02:52:02;10.20;68.40
43679;DHT22;29279;50.858;4.392;2023-04-06T02:54:28;10.10;68.60
43679;DHT22;29279;50.858;4.392;2023-04-06T02:56:54;10.10;68.80
43679;DHT22;29279;50.858;4.392;2023-04-06T02:59:20;10.10;68.70
43679;DHT22;29279;50.858;4.392;2023-04-06T03:01:45;10.10;68.50
43679;DHT22;29279;50.858;4.392;2023-04-06T03:04:11;10.20;68.60
43679;DHT22;29279;50.858;4.392;2023-04-06T03:06:37;10.20;68.40
43679;DHT22;29279;50.858;4.392;2023-04-06T03:09:03;10.10;68.60
43679;DHT22;29279;50.858;4.392;2023-04-06T03:11:28;10.00;69.50
43679;DHT22;29279;50.858;4.392;2023-04-06T03:13:54;10.00;69.50
43679;DHT22;29279;50.858;4.392;2023-04-06T03:16:20;9.90;69.50
43679;DHT22;29279;50.858;4.392;2023-04-06T03:18:46;9.90;69.50
43679;DHT22;29279;50.858;4.392;2023-04-06T03:21:13;9.90;69.30
43679;DHT22;29279;50.858;4.392;2023-04-06T03:23:40;9.90;69.60
43679;DHT22;29279;50.858;4.392;2023-04-06T03:26:06;9.90;69.80
43679;DHT22;29279;50.858;4.392;2023-04-06T03:28:32;9.90;69.50
43679;DHT22;29279;50.858;4.392;2023-04-06T03:30:57;9.90;69.50
43679;DHT22;29279;50.858;4.392;2023-04-06T03:33:23;9.90;69.50
43679;DHT22;29279;50.858;4.392;2023-04-06T03:35:49;9.90;69.60
43679;DHT22;29279;50.858;4.392;2023-04-06T03:38:15;9.90;69.70
43679;DHT22;29279;50.858;4.392;2023-04-06T03:40:41;9.80;69.90
43679;DHT22;29279;50.858;4.392;2023-04-06T03:43:08;9.80;70.40
43679;DHT22;29279;50.858;4.392;2023-04-06T03:45:34;9.70;70.20
43679;DHT22;29279;50.858;4.392;2023-04-06T03:48:00;9.80;70.20
43679;DHT22;29279;50.858;4.392;2023-04-06T03:50:26;9.80;70.40
43679;DHT22;29279;50.858;4.392;2023-04-06T03:52:51;9.80;70.10
43679;DHT22;29279;50.858;4.392;2023-04-06T03:55:17;9.80;70.30
43679;DHT22;29279;50.858;4.392;2023-04-06T03:57:43;9.90;70.30
43679;DHT22;29279;50.858;4.392;2023-04-06T04:00:09;10.00;69.80
43679;DHT22;29279;50.858;4.392;2023-04-06T04:02:35;10.00;69.80
43679;DHT22;29279;50.858;4.392;2023-04-06T04:05:01;9.90;70.00
43679;DHT22;29279;50.858;4.392;2023-04-06T04:07:26;10.00;70.20
43679;DHT22;29279;50.858;4.392;2023-04-06T04:09:52;10.00;70.20
43679;DHT22;29279;50.858;4.392;2023-04-06T04:12:18;9.80;71.20
43679;DHT22;29279;50.858;4.392;2023-04-06T04:14:43;9.90;71.00
43679;DHT22;29279;50.858;4.392;2023-04-06T04:17:09;10.00;71.20
43679;DHT22;29279;50.858;4.392;2023-04-06T04:19:35;10.10;70.70
43679;DHT22;29279;50.858;4.392;2023-04-06T04:22:01;10.10;70.90
43679;DHT22;29279;50.858;4.392;2023-04-06T04:24:33;10.10;70.50
43679;DHT22;29279;50.858;4.392;2023-04-06T04:26:59;10.10;70.70
43679;DHT22;29279;50.858;4.392;2023-04-06T04:29:26;10.10;70.80
43679;DHT22;29279;50.858;4.392;2023-04-06T04:31:52;10.20;70.90
43679;DHT22;29279;50.858;4.392;2023-04-06T04:34:18;10.20;70.90
43679;DHT22;29279;50.858;4.392;2023-04-06T04:36:52;10.10;71.40
43679;DHT22;29279;50.858;4.392;2023-04-06T04:39:18;10.00;71.60
43679;DHT22;29279;50.858;4.392;2023-04-06T04:41:44;10.00;72.00
43679;DHT22;29279;50.858;4.392;2023-04-06T04:44:10;10.10;72.10
43679;DHT22;29279;50.858;4.392;2023-04-06T04:46:35;10.10;72.50
43679;DHT22;29279;50.858;4.392;2023-04-06T04:49:01;10.10;72.70
43679;DHT22;29279;50.858;4.392;2023-04-06T04:51:27;10.20;72.90
43679;DHT22;29279;50.858;4.392;2023-04-06T04:53:53;10.20;72.70
43679;DHT22;29279;50.858;4.392;2023-04-06T04:56:18;10.10;73.20
43679;DHT22;29279;50.858;4.392;2023-04-06T04:58:44;10.10;73.40
43679;DHT22;29279;50.858;4.392;2023-04-06T05:01:10;10.10;73.40
43679;DHT22;29279;50.858;4.392;2023-04-06T05:03:36;10.10;73.60
43679;DHT22;29279;50.858;4.392;2023-04-06T05:06:04;10.00;74.10
43679;DHT22;29279;50.858;4.392;2023-04-06T05:08:30;10.00;74.00
43679;DHT22;29279;50.858;4.392;2023-04-06T05:10:56;10.10;74.10
43679;DHT22;29279;50.858;4.392;2023-04-06T05:13:22;10.10;74.00
43679;DHT22;29279;50.858;4.392;2023-04-06T05:15:47;10.20;73.90
43679;DHT22;29279;50.858;4.392;2023-04-06T05:18:13;10.30;74.30
43679;DHT22;29279;50.858;4.392;2023-04-06T05:20:39;10.40;73.90
43679;DHT22;29279;50.858;4.392;2023-04-06T05:23:05;10.50;73.80
43679;DHT22;29279;50.858;4.392;2023-04-06T05:25:31;10.40;73.90
43679;DHT22;29279;50.858;4.392;2023-04-06T05:27:57;10.50;74.20
43679;DHT22;29279;50.858;4.392;2023-04-06T05:30:23;10.40;74.20
43679;DHT22;29279;50.858;4.392;2023-04-06T05:32:50;10.40;74.40
43679;DHT22;29279;50.858;4.392;2023-04-06T05:35:16;10.30;75.20
43679;DHT22;29279;50.858;4.392;2023-04-06T05:37:42;10.10;75.60
43679;DHT22;29279;50.858;4.392;2023-04-06T05:40:08;10.10;76.00
43679;DHT22;29279;50.858;4.392;2023-04-06T05:45:07;10.30;75.70
43679;DHT22;29279;50.858;4.392;2023-04-06T05:47:33;10.10;76.10
43679;DHT22;29279;50.858;4.392;2023-04-06T05:49:58;10.10;76.40
43679;DHT22;29279;50.858;4.392;2023-04-06T05:52:24;10.10;76.60
43679;DHT22;29279;50.858;4.392;2023-04-06T05:54:50;10.10;76.70
43679;DHT22;29279;50.858;4.392;2023-04-06T05:57:16;10.10;76.90
43679;DHT22;29279;50.858;4.392;2023-04-06T05:59:44;10.20;76.70
43679;DHT22;29279;50.858;4.392;2023-04-06T06:02:10;10.20;76.80
43679;DHT22;29279;50.858;4.392;2023-04-06T06:04:36;10.30;76.90
43679;DHT22;29279;50.858;4.392;2023-04-06T06:07:02;10.30;76.70
43679;DHT22;29279;50.858;4.392;2023-04-06T06:09:27;10.40;76.90
43679;DHT22;29279;50.858;4.392;2023-04-06T06:11:53;10.50;76.80
43679;DHT22;29279;50.858;4.392;2023-04-06T06:14:19;10.40;77.30
43679;DHT22;29279;50.858;4.392;2023-04-06T06:16:45;10.40;77.30
43679;DHT22;29279;50.858;4.392;2023-04-06T06:19:11;10.50;77.20
43679;DHT22;29279;50.858;4.392;2023-04-06T06:21:37;10.40;77.60
43679;DHT22;29279;50.858;4.392;2023-04-06T06:24:02;10.40;78.00
43679;DHT22;29279;50.858;4.392;2023-04-06T06:26:28;10.40;78.30
43679;DHT22;29279;50.858;4.392;2023-04-06T06:28:54;10.30;79.10
43679;DHT22;29279;50.858;4.392;2023-04-06T06:31:20;10.10;80.00
43679;DHT22;29279;50.858;4.392;2023-04-06T06:33:51;9.90;82.00
43679;DHT22;29279;50.858;4.392;2023-04-06T06:36:19;10.00;83.20
43679;DHT22;29279;50.858;4.392;2023-04-06T06:38:45;10.00;84.60
43679;DHT22;29279;50.858;4.392;2023-04-06T06:41:11;9.90;86.30
43679;DHT22;29279;50.858;4.392;2023-04-06T06:43:37;10.00;87.90
43679;DHT22;29279;50.858;4.392;2023-04-06T06:46:04;10.20;88.00
43679;DHT22;29279;50.858;4.392;2023-04-06T06:48:30;10.20;89.50
43679;DHT22;29279;50.858;4.392;2023-04-06T06:50:56;10.10;89.90
43679;DHT22;29279;50.858;4.392;2023-04-06T06:53:22;9.90;90.90
43679;DHT22;29279;50.858;4.392;2023-04-06T06:55:48;10.00;91.60
43679;DHT22;29279;50.858;4.392;2023-04-06T06:58:14;10.00;92.20
43679;DHT22;29279;50.858;4.392;2023-04-06T07:00:40;10.00;92.60
43679;DHT22;29279;50.858;4.392;2023-04-06T07:03:06;9.90;92.60
43679;DHT22;29279;50.858;4.392;2023-04-06T07:05:32;9.90;93.10
43679;DHT22;29279;50.858;4.392;2023-04-06T07:07:57;9.80;93.80
43679;DHT22;29279;50.858;4.392;2023-04-06T07:10:23;9.80;94.10
43679;DHT22;29279;50.858;4.392;2023-04-06T07:12:49;9.80;94.80
43679;DHT22;29279;50.858;4.392;2023-04-06T07:15:15;9.80;95.60
43679;DHT22;29279;50.858;4.392;2023-04-06T07:17:41;9.90;95.80
43679;DHT22;29279;50.858;4.392;2023-04-06T07:20:07;10.00;96.20
43679;DHT22;29279;50.858;4.392;2023-04-06T07:22:34;10.00;96.90
43679;DHT22;29279;50.858;4.392;2023-04-06T07:24:59;10.00;97.20
43679;DHT22;29279;50.858;4.392;2023-04-06T07:27:25;9.80;98.30
43679;DHT22;29279;50.858;4.392;2023-04-06T07:29:51;9.60;99.60
43679;DHT22;29279;50.858;4.392;2023-04-06T07:32:17;9.40;99.90
43679;DHT22;29279;50.858;4.392;2023-04-06T07:34:42;9.60;99.90
43679;DHT22;29279;50.858;4.392;2023-04-06T07:37:10;9.80;99.90
43679;DHT22;29279;50.858;4.392;2023-04-06T07:39:36;9.60;99.90
43679;DHT22;29279;50.858;4.392;2023-04-06T07:42:01;9.60;99.90
43679;DHT22;29279;50.858;4.392;2023-04-06T07:44:27;9.50;99.90
43679;DHT22;29279;50.858;4.392;2023-04-06T07:46:53;9.30;99.90
43679;DHT22;29279;50.858;4.392;2023-04-06T07:49:18;9.30;99.90
43679;DHT22;29279;50.858;4.392;2023-04-06T07:51:46;9.10;99.90
43679;DHT22;29279;50.858;4.392;2023-04-06T07:54:11;9.10;99.90
43679;DHT22;29279;50.858;4.392;2023-04-06T07:56:37;9.00;99.90
43679;DHT22;29279;50.858;4.392;2023-04-06T07:59:03;9.20;99.90
43679;DHT22;29279;50.858;4.392;2023-04-06T08:01:29;9.30;99.90
43679;DHT22;29279;50.858;4.392;2023-04-06T08:03:56;9.50;99.90
43679;DHT22;29279;50.858;4.392;2023-04-06T08:06:22;9.30;99.90
43679;DHT22;29279;50.858;4.392;2023-04-06T08:08:48;9.40;99.90
43679;DHT22;29279;50.858;4.392;2023-04-06T08:11:13;9.30;99.90
43679;DHT22;29279;50.858;4.392;2023-04-06T08:13:39;9.30;99.90
43679;DHT22;29279;50.858;4.392;2023-04-06T08:16:05;9.20;99.90
43679;DHT22;29279;50.858;4.392;2023-04-06T08:18:31;9.20;99.90
43679;DHT22;29279;50.858;4.392;2023-04-06T08:20:57;9.20;99.90
43679;DHT22;29279;50.858;4.392;2023-04-06T08:23:22;9.10;99.90
43679;DHT22;29279;50.858;4.392;2023-04-06T08:25:48;9.20;99.90
43679;DHT22;29279;50.858;4.392;2023-04-06T08:28:14;9.10;99.90
43679;DHT22;29279;50.858;4.392;2023-04-06T08:30:43;9.00;99.90
43679;DHT22;29279;50.858;4.392;2023-04-06T08:33:09;8.90;99.90
43679;DHT22;29279;50.858;4.392;2023-04-06T08:35:35;8.80;99.90
43679;DHT22;29279;50.858;4.392;2023-04-06T08:38:01;8.60;99.90
43679;DHT22;29279;50.858;4.392;2023-04-06T08:40:27;8.50;99.90
43679;DHT22;29279;50.858;4.392;2023-04-06T08:42:55;8.50;99.90
43679;DHT22;29279;50.858;4.392;2023-04-06T08:45:22;8.50;99.90
43679;DHT22;29279;50.858;4.392;2023-04-06T08:47:51;8.60;99.90
43679;DHT22;29279;50.858;4.392;2023-04-06T08:50:20;8.60;99.90
43679;DHT22;29279;50.858;4.392;2023-04-06T08:52:49;8.50;99.90
43679;DHT22;29279;50.858;4.392;2023-04-06T08:55:15;8.40;99.90
43679;DHT22;29279;50.858;4.392;2023-04-06T08:57:42;8.40;99.90
43679;DHT22;29279;50.858;4.392;2023-04-06T09:00:10;8.30;99.90
43679;DHT22;29279;50.858;4.392;2023-04-06T09:02:39;8.30;99.90
43679;DHT22;29279;50.858;4.392;2023-04-06T09:05:08;8.40;99.90
43679;DHT22;29279;50.858;4.392;2023-04-06T09:07:36;8.50;99.90
43679;DHT22;29279;50.858;4.392;2023-04-06T09:10:02;8.50;99.90
43679;DHT22;29279;50.858;4.392;2023-04-06T09:12:29;8.50;99.90
43679;DHT22;29279;50.858;4.392;2023-04-06T09:14:55;8.40;99.90
43679;DHT22;29279;50.858;4.392;2023-04-06T09:17:22;8.30;99.90
43679;DHT22;29279;50.858;4.392;2023-04-06T09:19:48;8.40;99.90
43679;DHT22;29279;50.858;4.392;2023-04-06T09:22:14;8.50;99.90
43679;DHT22;29279;50.858;4.392;2023-04-06T09:24:48;8.40;99.90
43679;DHT22;29279;50.858;4.392;2023-04-06T09:27:14;8.40;99.90
43679;DHT22;29279;50.858;4.392;2023-04-06T09:29:44;8.50;99.90
43679;DHT22;29279;50.858;4.392;2023-04-06T09:32:11;8.60;99.90
43679;DHT22;29279;50.858;4.392;2023-04-06T09:34:38;8.50;99.90
43679;DHT22;29279;50.858;4.392;2023-04-06T09:37:17;8.40;99.90
43679;DHT22;29279;50.858;4.392;2023-04-06T09:39:44;8.40;99.90
43679;DHT22;29279;50.858;4.392;2023-04-06T09:42:24;8.50;99.90
43679;DHT22;29279;50.858;4.392;2023-04-06T09:44:51;8.50;99.90
43679;DHT22;29279;50.858;4.392;2023-04-06T09:47:17;8.60;99.90
43679;DHT22;29279;50.858;4.392;2023-04-06T09:49:44;8.30;99.90
43679;DHT22;29279;50.858;4.392;2023-04-06T09:52:11;8.30;99.90
43679;DHT22;29279;50.858;4.392;2023-04-06T09:54:38;8.30;99.90
43679;DHT22;29279;50.858;4.392;2023-04-06T09:57:27;8.40;99.90
43679;DHT22;29279;50.858;4.392;2023-04-06T10:08:13;8.30;99.90
43679;DHT22;29279;50.858;4.392;2023-04-06T10:10:39;8.40;99.90
43679;DHT22;29279;50.858;4.392;2023-04-06T10:13:05;8.40;99.90
43679;DHT22;29279;50.858;4.392;2023-04-06T10:15:31;8.50;99.90
43679;DHT22;29279;50.858;4.392;2023-04-06T10:17:58;8.50;99.90
43679;DHT22;29279;50.858;4.392;2023-04-06T10:23:09;8.50;99.90
43679;DHT22;29279;50.858;4.392;2023-04-06T10:25:39;8.40;99.90
43679;DHT22;29279;50.858;4.392;2023-04-06T10:28:06;8.50;99.90
43679;DHT22;29279;50.858;4.392;2023-04-06T10:30:33;8.60;99.90
43679;DHT22;29279;50.858;4.392;2023-04-06T10:32:59;8.70;99.90
43679;DHT22;29279;50.858;4.392;2023-04-06T10:35:36;8.70;99.90
43679;DHT22;29279;50.858;4.392;2023-04-06T10:38:04;8.90;99.90
43679;DHT22;29279;50.858;4.392;2023-04-06T10:40:30;9.10;99.90
43679;DHT22;29279;50.858;4.392;2023-04-06T10:43:10;8.90;99.90
43679;DHT22;29279;50.858;4.392;2023-04-06T10:45:36;8.90;99.90
43679;DHT22;29279;50.858;4.392;2023-04-06T10:48:16;8.90;99.90
43679;DHT22;29279;50.858;4.392;2023-04-06T10:50:49;8.90;99.90
43679;DHT22;29279;50.858;4.392;2023-04-06T10:53:25;8.70;99.90
43679;DHT22;29279;50.858;4.392;2023-04-06T10:55:56;8.50;99.90
43679;DHT22;29279;50.858;4.392;2023-04-06T10:58:26;8.50;99.90
43679;DHT22;29279;50.858;4.392;2023-04-06T11:00:54;8.50;99.90
43679;DHT22;29279;50.858;4.392;2023-04-06T11:03:21;8.50;99.90
43679;DHT22;29279;50.858;4.392;2023-04-06T11:05:50;8.60;99.90
43679;DHT22;29279;50.858;4.392;2023-04-06T11:08:26;8.60;99.90
43679;DHT22;29279;50.858;4.392;2023-04-06T11:11:13;8.80;99.90
43679;DHT22;29279;50.858;4.392;2023-04-06T11:13:58;8.90;99.90
43679;DHT22;29279;50.858;4.392;2023-04-06T11:16:29;9.00;99.90
43679;DHT22;29279;50.858;4.392;2023-04-06T11:18:57;8.90;99.90
43679;DHT22;29279;50.858;4.392;2023-04-06T11:21:45;9.10;99.90
43679;DHT22;29279;50.858;4.392;2023-04-06T11:24:17;9.10;99.90
43679;DHT22;29279;50.858;4.392;2023-04-06T11:26:57;9.20;99.90
43679;DHT22;29279;50.858;4.392;2023-04-06T11:29:28;9.40;99.90
43679;DHT22;29279;50.858;4.392;2023-04-06T11:32:00;9.20;99.90
43679;DHT22;29279;50.858;4.392;2023-04-06T11:34:28;9.40;99.90
43679;DHT22;29279;50.858;4.392;2023-04-06T11:36:58;9.20;99.90
43679;DHT22;29279;50.858;4.392;2023-04-06T11:39:26;9.20;99.90
43679;DHT22;29279;50.858;4.392;2023-04-06T11:42:01;9.40;99.90
43679;DHT22;29279;50.858;4.392;2023-04-06T11:44:36;9.50;99.90
43679;DHT22;29279;50.858;4.392;2023-04-06T11:47:03;9.40;99.90
43679;DHT22;29279;50.858;4.392;2023-04-06T11:49:31;9.40;99.90
43679;DHT22;29279;50.858;4.392;2023-04-06T11:51:58;9.40;99.90
43679;DHT22;29279;50.858;4.392;2023-04-06T11:54:35;9.40;99.90
43679;DHT22;29279;50.858;4.392;2023-04-06T11:57:04;9.60;99.90
43679;DHT22;29279;50.858;4.392;2023-04-06T11:59:34;9.60;99.90
43679;DHT22;29279;50.858;4.392;2023-04-06T12:02:01;9.80;99.90
43679;DHT22;29279;50.858;4.392;2023-04-06T12:04:28;9.60;99.90
43679;DHT22;29279;50.858;4.392;2023-04-06T12:06:54;9.50;99.90
43679;DHT22;29279;50.858;4.392;2023-04-06T12:09:19;9.50;99.90
43679;DHT22;29279;50.858;4.392;2023-04-06T12:11:46;9.60;99.90
43679;DHT22;29279;50.858;4.392;2023-04-06T12:14:13;9.80;99.90
43679;DHT22;29279;50.858;4.392;2023-04-06T12:16:40;9.60;99.90
43679;DHT22;29279;50.858;4.392;2023-04-06T12:19:06;9.50;99.90
43679;DHT22;29279;50.858;4.392;2023-04-06T12:21:32;9.40;99.90
43679;DHT22;29279;50.858;4.392;2023-04-06T12:23:58;9.60;99.90
43679;DHT22;29279;50.858;4.392;2023-04-06T12:26:25;9.50;99.90
43679;DHT22;29279;50.858;4.392;2023-04-06T12:28:51;9.50;99.90
43679;DHT22;29279;50.858;4.392;2023-04-06T12:31:17;9.80;99.90
43679;DHT22;29279;50.858;4.392;2023-04-06T12:33:46;9.70;99.90
43679;DHT22;29279;50.858;4.392;2023-04-06T12:36:13;9.60;99.90
43679;DHT22;29279;50.858;4.392;2023-04-06T12:38:39;9.60;99.90
43679;DHT22;29279;50.858;4.392;2023-04-06T12:41:06;9.50;99.90
43679;DHT22;29279;50.858;4.392;2023-04-06T12:43:32;9.50;99.90
43679;DHT22;29279;50.858;4.392;2023-04-06T12:45:58;9.60;99.90
43679;DHT22;29279;50.858;4.392;2023-04-06T12:48:25;9.50;99.90
43679;DHT22;29279;50.858;4.392;2023-04-06T12:51:00;9.30;99.90
43679;DHT22;29279;50.858;4.392;2023-04-06T12:53:26;9.10;99.90
43679;DHT22;29279;50.858;4.392;2023-04-06T12:55:56;9.10;99.90
43679;DHT22;29279;50.858;4.392;2023-04-06T12:58:23;9.00;99.90
43679;DHT22;29279;50.858;4.392;2023-04-06T13:00:49;9.00;99.90
43679;DHT22;29279;50.858;4.392;2023-04-06T13:03:17;9.00;99.90
43679;DHT22;29279;50.858;4.392;2023-04-06T13:05:46;8.90;99.90
43679;DHT22;29279;50.858;4.392;2023-04-06T13:08:13;9.10;99.90
43679;DHT22;29279;50.858;4.392;2023-04-06T13:10:50;9.00;99.90
43679;DHT22;29279;50.858;4.392;2023-04-06T13:13:17;9.00;99.90
43679;DHT22;29279;50.858;4.392;2023-04-06T13:15:43;9.20;99.90
43679;DHT22;29279;50.858;4.392;2023-04-06T13:18:09;9.20;99.90
43679;DHT22;29279;50.858;4.392;2023-04-06T13:20:35;9.20;99.90
43679;DHT22;29279;50.858;4.392;2023-04-06T13:23:01;9.10;99.90
43679;DHT22;29279;50.858;4.392;2023-04-06T13:25:27;9.10;99.90
43679;DHT22;29279;50.858;4.392;2023-04-06T13:27:53;9.30;99.90
43679;DHT22;29279;50.858;4.392;2023-04-06T13:30:20;9.30;99.90
43679;DHT22;29279;50.858;4.392;2023-04-06T13:32:46;9.20;99.90
43679;DHT22;29279;50.858;4.392;2023-04-06T13:35:11;9.30;99.90
43679;DHT22;29279;50.858;4.392;2023-04-06T13:37:38;9.30;99.90
43679;DHT22;29279;50.858;4.392;2023-04-06T13:40:05;9.40;99.90
43679;DHT22;29279;50.858;4.392;2023-04-06T13:42:32;9.40;99.90
43679;DHT22;29279;50.858;4.392;2023-04-06T13:44:58;9.40;99.90
43679;DHT22;29279;50.858;4.392;2023-04-06T13:47:24;9.40;99.90
43679;DHT22;29279;50.858;4.392;2023-04-06T13:49:50;9.30;99.90
43679;DHT22;29279;50.858;4.392;2023-04-06T13:52:18;9.20;99.90
43679;DHT22;29279;50.858;4.392;2023-04-06T13:54:44;9.30;99.90
43679;DHT22;29279;50.858;4.392;2023-04-06T13:57:11;9.40;99.90
43679;DHT22;29279;50.858;4.392;2023-04-06T13:59:38;9.30;99.90
43679;DHT22;29279;50.858;4.392;2023-04-06T14:02:06;9.30;99.90
43679;DHT22;29279;50.858;4.392;2023-04-06T14:04:32;9.20;99.90
43679;DHT22;29279;50.858;4.392;2023-04-06T14:06:59;9.30;99.90
43679;DHT22;29279;50.858;4.392;2023-04-06T14:09:26;9.30;99.90
43679;DHT22;29279;50.858;4.392;2023-04-06T14:11:52;9.30;99.90
43679;DHT22;29279;50.858;4.392;2023-04-06T14:14:19;9.30;99.90
43679;DHT22;29279;50.858;4.392;2023-04-06T14:16:45;9.30;99.90
43679;DHT22;29279;50.858;4.392;2023-04-06T14:19:11;9.50;99.90
43679;DHT22;29279;50.858;4.392;2023-04-06T14:21:44;9.60;99.90
43679;DHT22;29279;50.858;4.392;2023-04-06T14:24:10;9.60;99.90
43679;DHT22;29279;50.858;4.392;2023-04-06T14:26:37;9.70;99.90
43679;DHT22;29279;50.858;4.392;2023-04-06T14:29:05;9.80;99.90
43679;DHT22;29279;50.858;4.392;2023-04-06T14:31:31;9.80;99.90
43679;DHT22;29279;50.858;4.392;2023-04-06T14:33:57;9.90;99.90
43679;DHT22;29279;50.858;4.392;2023-04-06T14:36:23;9.60;99.90
43679;DHT22;29279;50.858;4.392;2023-04-06T14:38:52;9.50;99.90
43679;DHT22;29279;50.858;4.392;2023-04-06T14:41:22;9.60;99.90
43679;DHT22;29279;50.858;4.392;2023-04-06T14:43:48;9.70;99.90
43679;DHT22;29279;50.858;4.392;2023-04-06T14:46:14;9.80;99.90
43679;DHT22;29279;50.858;4.392;2023-04-06T14:48:41;9.90;99.90
43679;DHT22;29279;50.858;4.392;2023-04-06T14:51:07;10.00;99.90
43679;DHT22;29279;50.858;4.392;2023-04-06T14:53:33;10.00;99.90
43679;DHT22;29279;50.858;4.392;2023-04-06T14:55:58;10.10;99.90
43679;DHT22;29279;50.858;4.392;2023-04-06T14:58:25;10.00;99.90
43679;DHT22;29279;50.858;4.392;2023-04-06T15:01:00;9.90;99.90
43679;DHT22;29279;50.858;4.392;2023-04-06T15:03:27;10.00;99.90
43679;DHT22;29279;50.858;4.392;2023-04-06T15:05:54;9.90;99.90
43679;DHT22;29279;50.858;4.392;2023-04-06T15:08:20;9.90;99.90
43679;DHT22;29279;50.858;4.392;2023-04-06T15:10:47;9.90;99.90
43679;DHT22;29279;50.858;4.392;2023-04-06T15:13:13;10.00;99.90
43679;DHT22;29279;50.858;4.392;2023-04-06T15:15:38;10.10;99.90
43679;DHT22;29279;50.858;4.392;2023-04-06T15:18:04;10.30;99.90
43679;DHT22;29279;50.858;4.392;2023-04-06T15:20:30;10.50;99.90
43679;DHT22;29279;50.858;4.392;2023-04-06T15:22:56;10.40;99.90
43679;DHT22;29279;50.858;4.392;2023-04-06T15:25:22;10.40;99.90
43679;DHT22;29279;50.858;4.392;2023-04-06T15:27:48;10.50;99.90
43679;DHT22;29279;50.858;4.392;2023-04-06T15:30:14;10.50;99.90
43679;DHT22;29279;50.858;4.392;2023-04-06T15:32:39;10.60;99.90
43679;DHT22;29279;50.858;4.392;2023-04-06T15:35:10;10.70;99.90
43679;DHT22;29279;50.858;4.392;2023-04-06T15:37:36;10.70;99.90
43679;DHT22;29279;50.858;4.392;2023-04-06T15:40:02;10.80;99.90
43679;DHT22;29279;50.858;4.392;2023-04-06T15:42:28;10.70;99.90
43679;DHT22;29279;50.858;4.392;2023-04-06T15:44:54;10.50;99.90
43679;DHT22;29279;50.858;4.392;2023-04-06T15:47:19;10.50;99.90
43679;DHT22;29279;50.858;4.392;2023-04-06T15:49:45;10.40;99.90
43679;DHT22;29279;50.858;4.392;2023-04-06T15:52:11;10.40;99.90